| time (UTC) | temp C | wind direction | speed KPH | gust KPH | rain 1hr cm | rain 24hr cm | rain mn cm | humidity % | barometer mb |
| 20260507015323 | 21 | 290 | 4.8 | 9.7 | 0.00 | 0.00 | 0.00 | 59 | 1017.1 |
| 20260507014820 | 21 | 263 | 6.4 | 9.7 | 0.00 | 0.00 | 0.00 | 59 | 1017.1 |
| 20260507014316 | 21 | 274 | 3.2 | 3.2 | 0.00 | 0.00 | 0.00 | 59 | 1017.1 |
| 20260507013812 | 22 | 252 | 8.0 | 9.7 | 0.00 | 0.00 | 0.00 | 59 | 1016.8 |
| 20260507013310 | 22 | 234 | 12.9 | 17.7 | 0.00 | 0.00 | 0.00 | 57 | 1017.1 |
| 20260507012807 | 22 | 250 | 11.3 | 14.5 | 0.00 | 0.00 | 0.00 | 58 | 1016.8 |
| 20260507012306 | 22 | 260 | 8.0 | 9.7 | 0.00 | 0.00 | 0.00 | 57 | 1016.8 |
| 20260507011800 | 22 | 244 | 9.7 | 11.3 | 0.00 | 0.00 | 0.00 | 58 | 1016.8 |
| 20260507011256 | 22 | 248 | 17.7 | 20.9 | 0.00 | 0.00 | 0.00 | 57 | 1016.5 |
| 20260507010756 | 22 | 258 | 4.8 | 8.0 | 0.00 | 0.00 | 0.00 | 57 | 1016.5 |
| 20260507010252 | 22 | 249 | 9.7 | 12.9 | 0.00 | 0.00 | 0.00 | 56 | 1016.5 |
| 20260507005750 | 22 | 289 | 8.0 | 11.3 | 0.00 | 0.00 | 0.00 | 56 | 1016.5 |
| 20260507005246 | 22 | 258 | 9.7 | 14.5 | 0.00 | 0.00 | 0.00 | 55 | 1016.8 |
| 20260507004743 | 22 | 264 | 12.9 | 14.5 | 0.00 | 0.00 | 0.00 | 55 | 1016.5 |
| 20260507004241 | 22 | 221 | 12.9 | 16.1 | 0.00 | 0.00 | 0.00 | 55 | 1016.5 |
| 20260507003736 | 23 | 208 | 9.7 | 12.9 | 0.00 | 0.00 | 0.00 | 55 | 1016.5 |
| 20260507003232 | 23 | 245 | 12.9 | 14.5 | 0.00 | 0.00 | 0.00 | 54 | 1016.8 |
| 20260507002728 | 23 | 185 | 9.7 | 11.3 | 0.00 | 0.00 | 0.00 | 54 | 1016.5 |
| 20260507002224 | 23 | 240 | 8.0 | 9.7 | 0.00 | 0.00 | 0.00 | 54 | 1016.5 |
| 20260507001721 | 23 | 277 | 12.9 | 16.1 | 0.00 | 0.00 | 0.00 | 54 | 1016.8 |
| 20260507001219 | 23 | 244 | 6.4 | 8.0 | 0.00 | 0.00 | 0.00 | 54 | 1016.5 |
| 20260507000715 | 23 | 303 | 8.0 | 14.5 | 0.00 | 0.00 | 0.00 | 53 | 1016.0 |
| 20260507000212 | 23 | 271 | 14.5 | 16.1 | 0.00 | 0.00 | 0.00 | 52 | 1016.5 |
| 20260506235708 | 24 | 269 | 11.3 | 12.9 | 0.00 | 0.00 | 0.00 | 53 | 1016.5 |
| 20260506235203 | 25 | 257 | 6.4 | 8.0 | 0.00 | 0.00 | 0.00 | 51 | 1016.5 |
| 20260506234700 | 25 | 253 | 11.3 | 12.9 | 0.00 | 0.00 | 0.00 | 52 | 1016.5 |
| 20260506234157 | 25 | 3 | 6.4 | 11.3 | 0.00 | 0.00 | 0.00 | 50 | 1016.5 |
| 20260506233655 | 25 | 280 | 8.0 | 9.7 | 0.00 | 0.00 | 0.00 | 49 | 1016.5 |
| 20260506233151 | 25 | 243 | 14.5 | 22.5 | 0.00 | 0.00 | 0.00 | 49 | 1016.5 |
| 20260506232647 | 24 | 268 | 11.3 | 14.5 | 0.00 | 0.00 | 0.00 | 50 | 1016.5 |
| 20260506232143 | 24 | 247 | 12.9 | 12.9 | 0.00 | 0.00 | 0.00 | 49 | 1016.5 |
| 20260506231640 | 24 | 279 | 8.0 | 11.3 | 0.00 | 0.00 | 0.00 | 49 | 1016.5 |
| 20260506231139 | 24 | 296 | 8.0 | 12.9 | 0.00 | 0.00 | 0.00 | 49 | 1016.5 |
| 20260506230635 | 24 | 251 | 16.1 | 17.7 | 0.00 | 0.00 | 0.00 | 48 | 1016.5 |
| 20260506230132 | 24 | 307 | 8.0 | 11.3 | 0.00 | 0.00 | 0.00 | 49 | 1016.5 |
| 20260506225628 | 24 | 263 | 8.0 | 9.7 | 0.00 | 0.00 | 0.00 | 49 | 1016.8 |
| 20260506225125 | 24 | 287 | 9.7 | 14.5 | 0.00 | 0.00 | 0.00 | 48 | 1016.5 |
| 20260506224622 | 23 | 245 | 8.0 | 12.9 | 0.00 | 0.00 | 0.00 | 49 | 1016.8 |
| 20260506224118 | 24 | 278 | 14.5 | 16.1 | 0.00 | 0.00 | 0.00 | 49 | 1016.8 |
| 20260506223615 | 24 | 264 | 8.0 | 12.9 | 0.00 | 0.00 | 0.00 | 49 | 1016.8 |
| 20260506223111 | 24 | 309 | 12.9 | 12.9 | 0.00 | 0.00 | 0.00 | 49 | 1016.8 |
| 20260506222608 | 24 | 211 | 8.0 | 9.7 | 0.00 | 0.00 | 0.00 | 49 | 1017.1 |
| 20260506222104 | 23 | 325 | 11.3 | 12.9 | 0.00 | 0.00 | 0.00 | 49 | 1016.8 |
| 20260506221602 | 23 | 236 | 11.3 | 12.9 | 0.00 | 0.00 | 0.00 | 50 | 1017.1 |
| 20260506221100 | 23 | 274 | 11.3 | 12.9 | 0.00 | 0.00 | 0.00 | 49 | 1017.1 |
| 20260506220555 | 23 | 281 | 14.5 | 17.7 | 0.00 | 0.00 | 0.00 | 50 | 1017.1 |
| 20260506220051 | 23 | 336 | 6.4 | 9.7 | 0.00 | 0.00 | 0.00 | 51 | 1017.1 |
| 20260506215548 | 23 | 253 | 11.3 | 12.9 | 0.00 | 0.00 | 0.00 | 50 | 1017.1 |
| 20260506215044 | 23 | 249 | 11.3 | 12.9 | 0.00 | 0.00 | 0.00 | 50 | 1017.1 |
| 20260506214541 | 23 | 251 | 11.3 | 12.9 | 0.00 | 0.00 | 0.00 | 50 | 1017.5 |
| 20260506214038 | 23 | 238 | 8.0 | 9.7 | 0.00 | 0.00 | 0.00 | 50 | 1017.5 |
| 20260506213536 | 23 | 275 | 8.0 | 9.7 | 0.00 | 0.00 | 0.00 | 51 | 1017.5 |
| 20260506213033 | 23 | 296 | 9.7 | 12.9 | 0.00 | 0.00 | 0.00 | 51 | 1017.5 |
| 20260506212530 | 23 | 246 | 8.0 | 9.7 | 0.00 | 0.00 | 0.00 | 51 | 1017.5 |
| 20260506212025 | 23 | 220 | 11.3 | 12.9 | 0.00 | 0.00 | 0.00 | 51 | 1017.5 |
| 20260506211521 | 23 | 231 | 8.0 | 9.7 | 0.00 | 0.00 | 0.00 | 51 | 1018.2 |
| 20260506211018 | 23 | 276 | 8.0 | 9.7 | 0.00 | 0.00 | 0.00 | 49 | 1017.8 |
| 20260506210515 | 22 | 298 | 4.8 | 4.8 | 0.00 | 0.00 | 0.00 | 50 | 1017.8 |
| 20260506210011 | 22 | 319 | 11.3 | 12.9 | 0.00 | 0.00 | 0.00 | 50 | 1018.2 |
| 20260506205508 | 22 | 333 | 8.0 | 11.3 | 0.00 | 0.00 | 0.00 | 50 | 1017.8 |
| 20260506205003 | 23 | 295 | 9.7 | 11.3 | 0.00 | 0.00 | 0.00 | 50 | 1017.8 |
| 20260506204502 | 22 | 347 | 8.0 | 9.7 | 0.00 | 0.00 | 0.00 | 50 | 1018.2 |
| 20260506203958 | 22 | 332 | 4.8 | 9.7 | 0.00 | 0.00 | 0.00 | 51 | 1018.2 |
| 20260506203456 | 22 | 247 | 4.8 | 8.0 | 0.00 | 0.00 | 0.00 | 52 | 1018.2 |
| 20260506202953 | 22 | 224 | 8.0 | 9.7 | 0.00 | 0.00 | 0.00 | 52 | 1018.2 |
| 20260506202450 | 22 | 312 | 4.8 | 4.8 | 0.00 | 0.00 | 0.00 | 52 | 1018.5 |
| 20260506201946 | 22 | 286 | 3.2 | 4.8 | 0.00 | 0.00 | 0.00 | 51 | 1018.5 |
| 20260506201444 | 22 | 265 | 8.0 | 9.7 | 0.00 | 0.00 | 0.00 | 52 | 1018.5 |
| 20260506200940 | 21 | 299 | 6.4 | 8.0 | 0.00 | 0.00 | 0.00 | 51 | 1018.5 |
| 20260506200437 | 21 | 347 | 6.4 | 9.7 | 0.00 | 0.00 | 0.00 | 51 | 1018.5 |
| 20260506195933 | 21 | 348 | 6.4 | 12.9 | 0.00 | 0.00 | 0.00 | 53 | 1018.8 |
| 20260506195430 | 21 | 281 | 8.0 | 9.7 | 0.00 | 0.00 | 0.00 | 51 | 1018.5 |
| 20260506194927 | 21 | 256 | 9.7 | 12.9 | 0.00 | 0.00 | 0.00 | 51 | 1018.8 |
| 20260506194424 | 22 | 276 | 4.8 | 8.0 | 0.00 | 0.00 | 0.00 | 51 | 1018.8 |
| 20260506193921 | 22 | 294 | 3.2 | 3.2 | 0.00 | 0.00 | 0.00 | 51 | 1019.2 |
| 20260506193418 | 21 | 255 | 3.2 | 3.2 | 0.00 | 0.00 | 0.00 | 50 | 1019.2 |
| 20260506192914 | 21 | 251 | 6.4 | 8.0 | 0.00 | 0.00 | 0.00 | 52 | 1019.2 |
| 20260506192411 | 21 | 239 | 6.4 | 8.0 | 0.00 | 0.00 | 0.00 | 52 | 1019.2 |
| 20260506191908 | 20 | 133 | 8.0 | 8.0 | 0.00 | 0.00 | 0.00 | 51 | 1019.2 |
| 20260506191404 | 20 | 314 | 6.4 | 8.0 | 0.00 | 0.00 | 0.00 | 52 | 1019.2 |
| 20260506190902 | 20 | 278 | 1.6 | 1.6 | 0.00 | 0.00 | 0.00 | 53 | 1019.2 |
| 20260506190358 | 20 | 333 | 3.2 | 3.2 | 0.00 | 0.00 | 0.00 | 55 | 1019.2 |
| 20260506185855 | 20 | 248 | 1.6 | 3.2 | 0.00 | 0.00 | 0.00 | 53 | 1019.6 |
| 20260506185352 | 20 | 218 | 8.0 | 9.7 | 0.00 | 0.00 | 0.00 | 54 | 1019.6 |
| 20260506184849 | 19 | 97 | 4.8 | 4.8 | 0.00 | 0.00 | 0.00 | 55 | 1019.6 |
| 20260506184346 | 20 | 257 | 4.8 | 8.0 | 0.00 | 0.00 | 0.00 | 55 | 1019.6 |
| 20260506183843 | 18 | 343 | 3.2 | 3.2 | 0.00 | 0.00 | 0.00 | 56 | 1020.0 |
| 20260506183338 | 18 | 210 | 8.0 | 9.7 | 0.00 | 0.00 | 0.00 | 56 | 1020.0 |
| 20260506182836 | 18 | 265 | 4.8 | 9.7 | 0.00 | 0.00 | 0.00 | 56 | 1020.0 |
| 20260506182333 | 18 | 263 | 3.2 | 3.2 | 0.00 | 0.00 | 0.00 | 56 | 1020.0 |
| 20260506181831 | 18 | 273 | 4.8 | 4.8 | 0.00 | 0.00 | 0.00 | 58 | 1020.0 |
| 20260506181328 | 19 | 238 | 3.2 | 4.8 | 0.00 | 0.00 | 0.00 | 56 | 1020.0 |
| 20260506180825 | 18 | 248 | 0.0 | 1.6 | 0.00 | 0.00 | 0.00 | 57 | 1020.0 |
| 20260506180321 | 18 | 250 | 3.2 | 4.8 | 0.00 | 0.00 | 0.00 | 60 | 1020.0 |
| 20260506175818 | 18 | 239 | 4.8 | 8.0 | 0.00 | 0.00 | 0.00 | 58 | 1019.6 |
| 20260506175315 | 18 | 241 | 4.8 | 4.8 | 0.00 | 0.00 | 0.00 | 59 | 1020.0 |
| 20260506174812 | 17 | 290 | 1.6 | 1.6 | 0.00 | 0.00 | 0.00 | 61 | 1020.0 |
| 20260506174309 | 17 | 276 | 1.6 | 3.2 | 0.00 | 0.00 | 0.00 | 62 | 1020.0 |
| 20260506173807 | 17 | 270 | 4.8 | 4.8 | 0.00 | 0.00 | 0.00 | 61 | 1020.3 |
| 20260506173303 | 18 | 220 | 3.2 | 4.8 | 0.00 | 0.00 | 0.00 | 60 | 1020.0 |
| 20260506172800 | 17 | 86 | 4.8 | 4.8 | 0.00 | 0.00 | 0.00 | 61 | 1020.0 |
| 20260506172257 | 17 | 305 | 6.4 | 8.0 | 0.00 | 0.00 | 0.00 | 62 | 1020.0 |
| 20260506171754 | 17 | 275 | 1.6 | 3.2 | 0.00 | 0.00 | 0.00 | 61 | 1020.0 |
| 20260506171251 | 17 | 11 | 3.2 | 4.8 | 0.00 | 0.00 | 0.00 | 63 | 1020.0 |
| 20260506170743 | 16 | 88 | 3.2 | 4.8 | 0.00 | 0.00 | 0.00 | 65 | 1020.0 |
| 20260506170239 | 16 | 240 | 3.2 | 3.2 | 0.00 | 0.00 | 0.00 | 64 | 1020.0 |
| 20260506165738 | 16 | 279 | 1.6 | 1.6 | 0.00 | 0.00 | 0.00 | 66 | 1020.0 |
| 20260506165235 | 16 | 191 | 6.4 | 8.0 | 0.00 | 0.00 | 0.00 | 65 | 1020.0 |
| 20260506164732 | 16 | 242 | 3.2 | 3.2 | 0.00 | 0.00 | 0.00 | 67 | 1020.3 |
| 20260506164229 | 16 | 250 | 3.2 | 4.8 | 0.00 | 0.00 | 0.00 | 66 | 1020.0 |
| 20260506163726 | 16 | 327 | 1.6 | 1.6 | 0.00 | 0.00 | 0.00 | 67 | 1020.0 |
| 20260506163220 | 16 | 203 | 9.7 | 9.7 | 0.00 | 0.00 | 0.00 | 68 | 1020.0 |
| 20260506162717 | 16 | 295 | 1.6 | 3.2 | 0.00 | 0.00 | 0.00 | 67 | 1020.0 |
| 20260506162214 | 16 | 271 | 0.0 | 1.6 | 0.00 | 0.00 | 0.00 | 68 | 1020.0 |
| 20260506161711 | 16 | 93 | 4.8 | 8.0 | 0.00 | 0.00 | 0.00 | 67 | 1020.0 |
| 20260506161209 | 15 | 304 | 0.0 | 0.0 | 0.00 | 0.00 | 0.00 | 70 | 1020.0 |
| 20260506160706 | 15 | 272 | 3.2 | 3.2 | 0.00 | 0.00 | 0.00 | 69 | 1020.3 |
| 20260506160202 | 15 | 295 | 0.0 | 0.0 | 0.00 | 0.00 | 0.00 | 69 | 1020.0 |
| 20260506155701 | 15 | 260 | 3.2 | 3.2 | 0.00 | 0.00 | 0.00 | 70 | 1020.0 |
| 20260506155158 | 15 | 287 | 0.0 | 0.0 | 0.00 | 0.00 | 0.00 | 71 | 1020.0 |
| 20260506153305 | 15 | 293 | 0.0 | 0.0 | 0.00 | 0.00 | 0.00 | 72 | 1020.0 |
| 20260506152803 | 14 | 291 | 0.0 | 0.0 | 0.00 | 0.00 | 0.00 | 73 | 1020.0 |
| 20260506152300 | 15 | 282 | 1.6 | 1.6 | 0.00 | 0.00 | 0.00 | 72 | 1020.3 |
| 20260506151759 | 14 | 287 | 0.0 | 1.6 | 0.00 | 0.00 | 0.00 | 74 | 1020.0 |
| 20260506151255 | 13 | 294 | 0.0 | 0.0 | 0.00 | 0.00 | 0.00 | 76 | 1020.3 |
| 20260506150751 | 13 | 290 | 0.0 | 0.0 | 0.00 | 0.00 | 0.00 | 75 | 1020.0 |
| 20260506150249 | 13 | 282 | 1.6 | 1.6 | 0.00 | 0.00 | 0.00 | 76 | 1020.0 |
| 20260506145745 | 13 | 285 | 0.0 | 1.6 | 0.00 | 0.00 | 0.00 | 77 | 1020.3 |
| 20260506145242 | 12 | 292 | 1.6 | 1.6 | 0.00 | 0.00 | 0.00 | 77 | 1020.3 |
| 20260506144739 | 12 | 247 | 4.8 | 4.8 | 0.00 | 0.00 | 0.00 | 77 | 1020.3 |
| 20260506144236 | 12 | 256 | 4.8 | 4.8 | 0.00 | 0.00 | 0.00 | 78 | 1020.0 |
| 20260506143734 | 12 | 236 | 4.8 | 4.8 | 0.00 | 0.00 | 0.00 | 78 | 1019.6 |
| 20260506143231 | 12 | 258 | 3.2 | 3.2 | 0.00 | 0.00 | 0.00 | 78 | 1019.6 |
| 20260506142730 | 13 | 287 | 0.0 | 0.0 | 0.00 | 0.00 | 0.00 | 78 | 1020.0 |
| 20260506142227 | 13 | 290 | 0.0 | 0.0 | 0.00 | 0.00 | 0.00 | 75 | 1020.0 |
| 20260506141725 | 13 | 300 | 0.0 | 0.0 | 0.00 | 0.00 | 0.00 | 75 | 1020.0 |
| 20260506141223 | 12 | 303 | 0.0 | 0.0 | 0.00 | 0.00 | 0.00 | 77 | 1020.0 |
| 20260506140721 | 11 | 307 | 0.0 | 0.0 | 0.00 | 0.00 | 0.00 | 79 | 1020.0 |
| 20260506140217 | 11 | 309 | 0.0 | 0.0 | 0.00 | 0.00 | 0.00 | 80 | 1020.0 |
| 20260506135714 | 10 | 315 | 0.0 | 0.0 | 0.00 | 0.00 | 0.00 | 80 | 1020.0 |
| 20260506135210 | 10 | 315 | 0.0 | 0.0 | 0.00 | 0.00 | 0.00 | 82 | 1020.0 |
| 20260506134707 | 10 | 314 | 0.0 | 0.0 | 0.00 | 0.00 | 0.00 | 82 | 1019.6 |
| 20260506134203 | 10 | 309 | 0.0 | 0.0 | 0.00 | 0.00 | 0.00 | 83 | 1020.0 |
| 20260506133701 | 10 | 308 | 0.0 | 0.0 | 0.00 | 0.00 | 0.00 | 84 | 1019.6 |
| 20260506133157 | 9 | 311 | 1.6 | 1.6 | 0.00 | 0.00 | 0.00 | 85 | 1019.6 |
| 20260506132655 | 9 | 301 | 0.0 | 0.0 | 0.00 | 0.00 | 0.00 | 86 | 1019.6 |
| 20260506132151 | 9 | 303 | 0.0 | 0.0 | 0.00 | 0.00 | 0.00 | 86 | 1019.2 |
| 20260506131649 | 8 | 306 | 0.0 | 0.0 | 0.00 | 0.00 | 0.00 | 86 | 1019.2 |
| 20260506131145 | 8 | 304 | 0.0 | 0.0 | 0.00 | 0.00 | 0.00 | 87 | 1019.2 |
| 20260506130642 | 8 | 305 | 0.0 | 0.0 | 0.00 | 0.00 | 0.00 | 87 | 1019.2 |
| 20260506130139 | 8 | 298 | 0.0 | 0.0 | 0.00 | 0.00 | 0.00 | 87 | 1019.2 |
| 20260506125637 | 8 | 299 | 1.6 | 1.6 | 0.00 | 0.00 | 0.00 | 87 | 1019.2 |
| 20260506125135 | 8 | 301 | 0.0 | 0.0 | 0.00 | 0.00 | 0.00 | 87 | 1019.2 |
| 20260506124633 | 8 | 316 | 0.0 | 0.0 | 0.00 | 0.00 | 0.00 | 87 | 1019.2 |
| 20260506124130 | 8 | 314 | 0.0 | 0.0 | 0.00 | 0.00 | 0.00 | 87 | 1019.2 |
| 20260506123628 | 8 | 313 | 0.0 | 0.0 | 0.00 | 0.00 | 0.00 | 87 | 1018.8 |
| 20260506123126 | 8 | 314 | 0.0 | 0.0 | 0.00 | 0.00 | 0.00 | 88 | 1018.8 |
| 20260506122622 | 8 | 309 | 0.0 | 0.0 | 0.00 | 0.00 | 0.00 | 87 | 1019.2 |
| 20260506122120 | 8 | 300 | 0.0 | 0.0 | 0.00 | 0.00 | 0.00 | 87 | 1019.2 |
| 20260506121618 | 8 | 313 | 0.0 | 0.0 | 0.00 | 0.00 | 0.00 | 87 | 1018.8 |
| 20260506121114 | 8 | 311 | 0.0 | 0.0 | 0.00 | 0.00 | 0.00 | 87 | 1018.8 |
| 20260506120612 | 8 | 310 | 0.0 | 0.0 | 0.00 | 0.00 | 0.00 | 88 | 1019.2 |
| 20260506120109 | 8 | 305 | 0.0 | 0.0 | 0.00 | 0.00 | 0.00 | 88 | 1018.8 |
| 20260506115608 | 8 | 307 | 0.0 | 0.0 | 0.00 | 0.00 | 0.00 | 88 | 1018.8 |
| 20260506115105 | 8 | 314 | 0.0 | 0.0 | 0.00 | 0.00 | 0.00 | 88 | 1018.8 |
| 20260506114602 | 8 | 313 | 0.0 | 0.0 | 0.00 | 0.00 | 0.00 | 88 | 1018.8 |
| 20260506114100 | 8 | 312 | 0.0 | 0.0 | 0.00 | 0.00 | 0.00 | 88 | 1018.8 |
| 20260506113558 | 8 | 304 | 0.0 | 0.0 | 0.00 | 0.00 | 0.00 | 88 | 1019.2 |
| 20260506113055 | 9 | 305 | 0.0 | 0.0 | 0.00 | 0.00 | 0.00 | 87 | 1018.8 |
| 20260506112551 | 9 | 307 | 0.0 | 0.0 | 0.00 | 0.00 | 0.00 | 88 | 1018.8 |
| 20260506112049 | 9 | 310 | 0.0 | 0.0 | 0.00 | 0.00 | 0.00 | 88 | 1019.2 |
| 20260506111547 | 9 | 309 | 0.0 | 0.0 | 0.00 | 0.00 | 0.00 | 88 | 1018.8 |
| 20260506111044 | 8 | 307 | 0.0 | 0.0 | 0.00 | 0.00 | 0.00 | 88 | 1018.8 |
| 20260506110542 | 8 | 305 | 0.0 | 0.0 | 0.00 | 0.00 | 0.00 | 87 | 1018.8 |
| 20260506110039 | 8 | 306 | 0.0 | 0.0 | 0.00 | 0.00 | 0.00 | 88 | 1018.8 |
| 20260506105535 | 8 | 306 | 0.0 | 0.0 | 0.00 | 0.00 | 0.00 | 87 | 1018.5 |
| 20260506105032 | 8 | 300 | 0.0 | 0.0 | 0.00 | 0.00 | 0.00 | 87 | 1018.8 |
| 20260506104530 | 8 | 300 | 0.0 | 0.0 | 0.00 | 0.00 | 0.00 | 87 | 1018.8 |
| 20260506104028 | 9 | 300 | 0.0 | 0.0 | 0.00 | 0.00 | 0.00 | 86 | 1018.8 |
| 20260506103525 | 9 | 305 | 0.0 | 0.0 | 0.00 | 0.00 | 0.00 | 86 | 1018.8 |
| 20260506103021 | 9 | 301 | 0.0 | 0.0 | 0.00 | 0.00 | 0.00 | 86 | 1018.8 |
| 20260506102520 | 9 | 306 | 0.0 | 0.0 | 0.00 | 0.00 | 0.00 | 86 | 1018.8 |
| 20260506102017 | 9 | 303 | 0.0 | 0.0 | 0.00 | 0.00 | 0.00 | 86 | 1018.8 |
| 20260506101513 | 9 | 302 | 0.0 | 0.0 | 0.00 | 0.00 | 0.00 | 86 | 1018.8 |
| 20260506101010 | 9 | 303 | 0.0 | 0.0 | 0.00 | 0.00 | 0.00 | 86 | 1018.5 |
| 20260506100509 | 9 | 302 | 0.0 | 0.0 | 0.00 | 0.00 | 0.00 | 86 | 1018.8 |
| 20260506100007 | 9 | 305 | 0.0 | 0.0 | 0.00 | 0.00 | 0.00 | 86 | 1018.8 |
| 20260506095505 | 9 | 306 | 0.0 | 0.0 | 0.00 | 0.00 | 0.00 | 85 | 1018.8 |
| 20260506095000 | 9 | 305 | 0.0 | 0.0 | 0.00 | 0.00 | 0.00 | 85 | 1018.8 |
| 20260506094459 | 9 | 308 | 0.0 | 0.0 | 0.00 | 0.00 | 0.00 | 86 | 1018.8 |
| 20260506093956 | 9 | 303 | 0.0 | 0.0 | 0.00 | 0.00 | 0.00 | 85 | 1018.8 |
| 20260506093455 | 9 | 302 | 0.0 | 0.0 | 0.00 | 0.00 | 0.00 | 85 | 1018.8 |
| 20260506092952 | 10 | 302 | 0.0 | 0.0 | 0.00 | 0.00 | 0.00 | 84 | 1018.8 |
| 20260506092450 | 10 | 303 | 0.0 | 0.0 | 0.00 | 0.00 | 0.00 | 84 | 1018.8 |
| 20260506091946 | 10 | 315 | 0.0 | 0.0 | 0.00 | 0.00 | 0.00 | 84 | 1018.8 |
| 20260506091444 | 10 | 302 | 0.0 | 0.0 | 0.00 | 0.00 | 0.00 | 83 | 1018.8 |
| 20260506090941 | 10 | 307 | 1.6 | 1.6 | 0.00 | 0.00 | 0.00 | 83 | 1019.2 |
| 20260506090439 | 10 | 327 | 3.2 | 3.2 | 0.00 | 0.00 | 0.00 | 83 | 1018.8 |
| 20260506085935 | 10 | 312 | 1.6 | 1.6 | 0.00 | 0.00 | 0.00 | 83 | 1018.8 |
| 20260506085432 | 10 | 323 | 3.2 | 3.2 | 0.00 | 0.00 | 0.00 | 83 | 1018.8 |
| 20260506084928 | 10 | 314 | 0.0 | 0.0 | 0.00 | 0.00 | 0.00 | 84 | 1018.8 |
| 20260506084426 | 10 | 304 | 0.0 | 0.0 | 0.00 | 0.00 | 0.00 | 84 | 1018.8 |
| 20260506083921 | 10 | 304 | 0.0 | 0.0 | 0.00 | 0.00 | 0.00 | 83 | 1018.8 |
| 20260506083419 | 10 | 303 | 0.0 | 0.0 | 0.00 | 0.00 | 0.00 | 83 | 1019.2 |
| 20260506082916 | 10 | 304 | 0.0 | 0.0 | 0.00 | 0.00 | 0.00 | 83 | 1019.2 |
| 20260506082413 | 10 | 305 | 0.0 | 0.0 | 0.00 | 0.00 | 0.00 | 83 | 1019.2 |
| 20260506081908 | 10 | 306 | 0.0 | 0.0 | 0.00 | 0.00 | 0.00 | 83 | 1019.2 |
| 20260506081408 | 10 | 303 | 0.0 | 0.0 | 0.00 | 0.00 | 0.00 | 83 | 1019.2 |
| 20260506080904 | 10 | 308 | 0.0 | 0.0 | 0.00 | 0.00 | 0.00 | 83 | 1019.2 |
| 20260506080402 | 10 | 310 | 0.0 | 0.0 | 0.00 | 0.00 | 0.00 | 84 | 1019.2 |
| 20260506073345 | 11 | 300 | 0.0 | 0.0 | 0.00 | 0.00 | 0.00 | 83 | 1019.2 |
| 20260506072842 | 11 | 300 | 0.0 | 0.0 | 0.00 | 0.00 | 0.00 | 82 | 1019.2 |
| 20260506072339 | 11 | 301 | 0.0 | 0.0 | 0.00 | 0.00 | 0.00 | 81 | 1019.2 |
| 20260506071837 | 11 | 303 | 0.0 | 0.0 | 0.00 | 0.00 | 0.00 | 81 | 1019.2 |
| 20260506071335 | 11 | 306 | 0.0 | 1.6 | 0.00 | 0.00 | 0.00 | 80 | 1019.2 |
| 20260506070831 | 12 | 305 | 0.0 | 0.0 | 0.00 | 0.00 | 0.00 | 79 | 1019.2 |
| 20260506070328 | 12 | 316 | 3.2 | 3.2 | 0.00 | 0.00 | 0.00 | 79 | 1019.2 |
| 20260506062300 | 12 | 279 | 4.8 | 4.8 | 0.00 | 0.48 | 0.48 | 76 | 1018.8 |
| 20260506061755 | 12 | 268 | 1.6 | 3.2 | 0.00 | 0.48 | 0.48 | 75 | 1018.8 |
| 20260506061253 | 13 | 253 | 6.4 | 8.0 | 0.00 | 0.48 | 0.48 | 75 | 1018.5 |
| 20260506060751 | 13 | 275 | 3.2 | 4.8 | 0.00 | 0.48 | 0.48 | 75 | 1018.5 |
| 20260506060249 | 13 | 286 | 3.2 | 3.2 | 0.00 | 0.48 | 0.48 | 75 | 1018.5 |
| 20260506051220 | 13 | 256 | 4.8 | 4.8 | 0.00 | 0.48 | 0.48 | 73 | 1018.2 |
| 20260506050719 | 13 | 278 | 4.8 | 4.8 | 0.00 | 0.48 | 0.48 | 73 | 1018.2 |
| 20260506050215 | 13 | 275 | 4.8 | 4.8 | 0.00 | 0.48 | 0.48 | 72 | 1018.2 |
| 20260506044706 | 13 | 287 | 3.2 | 4.8 | 0.00 | 0.48 | 0.48 | 70 | 1018.2 |
| 20260506044203 | 13 | 291 | 4.8 | 4.8 | 0.00 | 0.48 | 0.48 | 69 | 1017.8 |
| 20260506043701 | 14 | 275 | 1.6 | 1.6 | 0.00 | 0.48 | 0.48 | 68 | 1017.5 |
| 20260506043158 | 14 | 280 | 1.6 | 1.6 | 0.00 | 0.48 | 0.48 | 67 | 1017.8 |
| 20260506042657 | 14 | 270 | 4.8 | 4.8 | 0.00 | 0.48 | 0.48 | 66 | 1017.8 |
| 20260506042155 | 14 | 280 | 4.8 | 4.8 | 0.00 | 0.48 | 0.48 | 66 | 1017.5 |
| 20260506041653 | 14 | 275 | 3.2 | 4.8 | 0.00 | 0.48 | 0.48 | 66 | 1017.5 |
| 20260506041149 | 14 | 291 | 0.0 | 0.0 | 0.00 | 0.48 | 0.48 | 66 | 1017.5 |
| 20260506040647 | 14 | 269 | 4.8 | 8.0 | 0.00 | 0.48 | 0.48 | 66 | 1017.1 |
| 20260506040144 | 14 | 270 | 3.2 | 3.2 | 0.00 | 0.48 | 0.48 | 66 | 1017.5 |
| 20260506035641 | 14 | 288 | 1.6 | 1.6 | 0.00 | 0.48 | 0.48 | 65 | 1017.1 |
| 20260506035137 | 15 | 280 | 4.8 | 8.0 | 0.00 | 0.48 | 0.48 | 65 | 1017.1 |
| 20260506034635 | 15 | 281 | 4.8 | 4.8 | 0.00 | 0.48 | 0.48 | 65 | 1017.1 |
| 20260506034131 | 15 | 316 | 1.6 | 3.2 | 0.00 | 0.48 | 0.48 | 64 | 1016.8 |
| 20260506033629 | 15 | 283 | 6.4 | 8.0 | 0.00 | 0.48 | 0.48 | 64 | 1016.8 |
| 20260506033126 | 15 | 254 | 8.0 | 11.3 | 0.00 | 0.48 | 0.48 | 64 | 1016.5 |
| 20260506032623 | 15 | 254 | 4.8 | 4.8 | 0.00 | 0.48 | 0.48 | 64 | 1016.8 |
| 20260506032120 | 15 | 249 | 4.8 | 4.8 | 0.00 | 0.48 | 0.48 | 64 | 1016.5 |
| 20260506031617 | 15 | 276 | 4.8 | 4.8 | 0.00 | 0.48 | 0.48 | 64 | 1016.5 |
| 20260506031114 | 15 | 264 | 6.4 | 9.7 | 0.00 | 0.48 | 0.48 | 64 | 1016.5 |
| 20260506030612 | 15 | 263 | 4.8 | 4.8 | 0.00 | 0.48 | 0.48 | 64 | 1016.8 |
| 20260506030109 | 15 | 252 | 4.8 | 8.0 | 0.00 | 0.48 | 0.48 | 64 | 1016.5 |
| 20260506025606 | 15 | 293 | 6.4 | 8.0 | 0.00 | 0.48 | 0.48 | 63 | 1016.5 |
| 20260506025102 | 15 | 291 | 8.0 | 9.7 | 0.00 | 0.48 | 0.48 | 63 | 1016.5 |
| 20260506024559 | 15 | 283 | 6.4 | 8.0 | 0.00 | 0.48 | 0.48 | 62 | 1016.0 |
| 20260506024056 | 15 | 302 | 6.4 | 8.0 | 0.00 | 0.48 | 0.48 | 62 | 1016.0 |
| 20260506023551 | 15 | 285 | 3.2 | 3.2 | 0.00 | 0.48 | 0.48 | 61 | 1016.0 |
| 20260506023049 | 15 | 294 | 8.0 | 9.7 | 0.00 | 0.48 | 0.48 | 60 | 1015.7 |
| 20260506022547 | 16 | 270 | 3.2 | 4.8 | 0.00 | 0.48 | 0.48 | 61 | 1015.7 |
| 20260506022044 | 16 | 285 | 8.0 | 9.7 | 0.00 | 0.48 | 0.48 | 60 | 1015.7 |
| 20260506021541 | 16 | 286 | 4.8 | 4.8 | 0.00 | 0.48 | 0.48 | 60 | 1015.7 |
| 20260506021039 | 16 | 269 | 6.4 | 8.0 | 0.00 | 0.48 | 0.48 | 59 | 1015.4 |
| 20260506020536 | 16 | 261 | 6.4 | 8.0 | 0.00 | 0.48 | 0.48 | 59 | 1015.7 |
| 20260506020033 | 16 | 287 | 4.8 | 4.8 | 0.00 | 0.48 | 0.48 | 59 | 1015.7 |